Time;durP1;ratioP1;P1;durP2;ratioP2;P2;SDS_P1;SDS_P2;PMS_P1;PMS_P2;Temp;Humidity;BMP_temperature;BMP_pressure;BME280_temperature;BME280_humidity;BME280_pressure;Samples;Min_cycle;Max_cycle;Signal;HPM_P1;HPM_P2
2023/04/01 00:00:09;;;;;;;1.25;0.40;;;;;;;10.70;71.78;98069.16;339474;29;840;-88
2023/04/01 00:00:22;;;;;;;2.17;0.47;;;;;;;10.72;71.78;98072.50;340468;28;1618;-90
2023/04/01 00:00:34;;;;;;;2.40;0.55;;;;;;;10.62;71.89;98064.41;340501;29;773;-89
2023/04/01 00:00:46;;;;;;;1.67;0.50;;;;;;;10.53;71.84;98083.97;341287;28;1101;-89
2023/04/01 00:01:00;;;;;;;1.50;0.50;;;;;;;10.58;72.32;98075.91;340346;29;1556;-89
2023/04/01 00:01:14;;;;;;;1.10;0.40;;;;;;;10.56;72.09;98082.94;341824;28;1897;-89
2023/04/01 00:01:29;;;;;;;1.00;0.50;;;;;;;10.48;72.28;98085.97;339015;29;1556;-89
2023/04/01 00:01:41;;;;;;;1.20;0.45;;;;;;;10.53;72.30;98081.38;339311;29;1870;-89
2023/04/01 00:01:53;;;;;;;1.90;0.40;;;;;;;10.57;72.28;98069.03;341187;28;1011;-89
2023/04/01 00:02:05;;;;;;;1.90;0.40;;;;;;;10.59;72.21;98072.38;341054;29;911;-88
2023/04/01 00:02:17;;;;;;;1.70;0.40;;;;;;;10.62;72.26;98072.19;342525;28;1151;-89
2023/04/01 00:02:30;;;;;;;2.30;0.50;;;;;;;10.66;72.14;98073.69;340630;29;1644;-92
2023/04/01 00:02:42;;;;;;;2.00;0.47;;;;;;;10.67;72.02;98070.19;342156;28;895;-90
2023/04/01 00:02:55;;;;;;;2.35;0.65;;;;;;;10.66;72.12;98085.84;342042;28;896;-89
2023/04/01 00:03:07;;;;;;;2.00;0.60;;;;;;;10.68;72.13;98082.22;341745;29;999;-90
2023/04/01 00:03:21;;;;;;;1.67;0.50;;;;;;;10.66;72.27;98078.06;340691;28;1524;-89
2023/04/01 00:03:34;;;;;;;1.60;0.50;;;;;;;10.58;72.05;98073.31;340460;29;1552;-90
2023/04/01 00:03:50;;;;;;;2.03;0.50;;;;;;;10.62;71.99;98064.41;340620;29;1595;-89
2023/04/01 00:04:02;;;;;;;1.58;0.40;;;;;;;10.60;72.02;98071.44;340635;28;1710;-89
2023/04/01 00:04:15;;;;;;;0.63;0.30;;;;;;;10.61;72.34;98064.50;340783;28;964;-89
2023/04/01 00:04:27;;;;;;;1.00;0.30;;;;;;;10.59;72.63;98075.00;340362;28;1583;-89
2023/04/01 00:04:40;;;;;;;1.48;0.30;;;;;;;10.53;72.29;98077.94;342167;28;1554;-88
2023/04/01 00:04:52;;;;;;;2.05;0.35;;;;;;;10.60;72.10;98074.03;342567;29;1843;-89
2023/04/01 00:05:05;;;;;;;2.42;0.50;;;;;;;10.62;71.98;98082.59;337595;29;1819;-89
2023/04/01 00:05:17;;;;;;;1.52;0.40;;;;;;;10.68;71.15;98077.03;336882;29;874;-88
2023/04/01 00:05:30;;;;;;;1.02;0.40;;;;;;;10.70;71.70;98069.97;337438;29;2074;-90
2023/04/01 00:05:42;;;;;;;1.17;0.40;;;;;;;10.67;71.84;98075.38;336447;29;1364;-89
2023/04/01 00:05:58;;;;;;;1.25;0.40;;;;;;;10.66;72.31;98084.09;339402;29;996;-89
2023/04/01 00:06:15;;;;;;;1.48;0.40;;;;;;;10.67;71.91;98070.19;337856;29;882;-90
2023/04/01 00:06:28;;;;;;;1.67;0.40;;;;;;;10.59;72.05;98075.00;340585;28;991;-90
2023/04/01 00:06:40;;;;;;;1.75;0.50;;;;;;;10.61;72.34;98069.72;340471;28;1818;-90
2023/04/01 00:06:52;;;;;;;1.65;0.52;;;;;;;10.66;71.85;98059.88;340918;28;1465;-92
2023/04/01 00:07:04;;;;;;;1.42;0.47;;;;;;;10.69;72.02;98063.13;341525;29;1402;-89
2023/04/01 00:07:16;;;;;;;0.65;0.30;;;;;;;10.71;71.90;98070.84;340985;28;1128;-88
2023/04/01 00:07:29;;;;;;;0.35;0.30;;;;;;;10.67;71.88;98064.97;341202;28;1673;-90
2023/04/01 00:07:42;;;;;;;0.50;0.30;;;;;;;10.66;71.80;98060.69;339106;28;1727;-89
2023/04/01 00:07:54;;;;;;;0.73;0.30;;;;;;;10.73;71.79;98063.78;339099;29;790;-89
2023/04/01 00:08:09;;;;;;;1.65;0.30;;;;;;;10.72;71.87;98062.09;338932;29;870;-89
2023/04/01 00:08:23;;;;;;;2.00;0.50;;;;;;;10.66;71.71;98078.88;338978;29;1568;-89
2023/04/01 00:08:35;;;;;;;1.30;0.55;;;;;;;10.56;72.06;98077.75;340123;28;963;-88
2023/04/01 00:08:47;;;;;;;1.42;0.60;;;;;;;10.60;71.93;98071.44;340659;29;1723;-90
2023/04/01 00:08:59;;;;;;;1.50;0.55;;;;;;;10.65;72.29;98072.03;338701;29;1701;-89
2023/04/01 00:09:11;;;;;;;1.90;0.68;;;;;;;10.71;71.80;98061.28;339042;29;1515;-89
2023/04/01 00:09:23;;;;;;;2.13;0.70;;;;;;;10.63;71.65;98053.09;339201;28;1901;-88
2023/04/01 00:09:40;;;;;;;2.17;0.30;;;;;;;10.74;72.00;98074.06;341051;29;1735;-90
2023/04/01 00:09:52;;;;;;;2.08;0.40;;;;;;;10.74;71.77;98060.25;341545;28;844;-89
2023/04/01 00:10:10;;;;;;;2.13;0.40;;;;;;;10.73;71.89;98064.63;341549;28;1178;-89
2023/04/01 00:10:25;;;;;;;1.42;0.40;;;;;;;10.73;71.18;98080.22;339797;29;1855;-89
2023/04/01 00:10:37;;;;;;;2.10;0.40;;;;;;;10.74;71.53;98076.69;341465;28;985;-89
2023/04/01 00:10:50;;;;;;;2.55;0.40;;;;;;;10.74;71.31;98068.88;340963;28;1690;-89
2023/04/01 00:11:02;;;;;;;1.90;0.35;;;;;;;10.71;71.66;98061.28;338118;29;1434;-89
2023/04/01 00:11:15;;;;;;;2.10;0.40;;;;;;;10.70;72.07;98069.97;337983;29;1956;-89
2023/04/01 00:11:27;;;;;;;1.77;0.40;;;;;;;10.68;72.05;98076.19;337846;29;1502;-91
2023/04/01 00:11:45;;;;;;;2.03;0.50;;;;;;;10.66;72.04;98068.50;339451;29;751;-88
2023/04/01 00:11:57;;;;;;;2.75;0.45;;;;;;;10.66;71.83;98063.28;338973;28;1892;-90
2023/04/01 00:12:09;;;;;;;2.08;0.38;;;;;;;10.63;72.00;98063.50;339844;28;1639;-89
2023/04/01 00:12:21;;;;;;;1.98;0.50;;;;;;;10.60;72.30;98063.66;342031;28;1504;-88
2023/04/01 00:12:35;;;;;;;3.28;0.60;;;;;;;10.64;72.18;98080.75;342844;29;1108;-88
2023/04/01 00:12:47;;;;;;;2.45;0.60;;;;;;;10.71;71.73;98086.44;342583;29;1064;-88
2023/04/01 00:12:59;;;;;;;1.60;0.45;;;;;;;10.71;71.79;98100.25;341428;28;866;-89
2023/04/01 00:13:11;;;;;;;2.28;0.40;;;;;;;10.75;71.66;98080.97;338488;29;1700;-89
2023/04/01 00:13:26;;;;;;;3.05;0.50;;;;;;;10.71;71.70;98071.66;337925;29;1149;-90
2023/04/01 00:13:38;;;;;;;2.72;0.40;;;;;;;10.67;71.88;98062.38;336978;29;1565;-89
2023/04/01 00:13:56;;;;;;;1.52;0.40;;;;;;;10.69;72.41;98067.50;338981;29;1081;-89
2023/04/01 00:14:08;;;;;;;1.20;0.30;;;;;;;10.71;72.15;98070.84;337936;29;1589;-89
2023/04/01 00:14:20;;;;;;;3.25;0.40;;;;;;;10.69;72.00;98065.72;338788;28;1882;-89
2023/04/01 00:14:32;;;;;;;3.58;0.38;;;;;;;10.70;72.42;98080.38;339481;29;1618;-90
2023/04/01 00:14:44;;;;;;;2.95;0.50;;;;;;;10.67;72.32;98067.59;339072;29;1284;-90
2023/04/01 00:14:56;;;;;;;3.13;0.52;;;;;;;10.67;72.03;98070.19;341061;28;1708;-89
2023/04/01 00:15:11;;;;;;;2.97;0.50;;;;;;;10.68;72.45;98066.63;342670;28;1060;-88
2023/04/01 00:15:23;;;;;;;3.05;0.55;;;;;;;10.62;72.45;98077.41;340362;28;1237;-88
2023/04/01 00:15:36;;;;;;;1.98;0.50;;;;;;;10.61;72.39;98091.31;339801;29;1455;-89
2023/04/01 00:15:48;;;;;;;2.05;0.47;;;;;;;10.69;71.94;98062.31;339773;28;1165;-89
2023/04/01 00:16:01;;;;;;;4.30;0.80;;;;;;;10.72;72.12;98062.94;338095;29;1069;-90
2023/04/01 00:16:15;;;;;;;3.90;0.65;;;;;;;10.72;72.36;98072.50;336669;29;1060;-89
2023/04/01 00:16:30;;;;;;;1.33;0.35;;;;;;;10.67;72.20;98079.75;338123;29;858;-88
2023/04/01 00:16:43;;;;;;;2.10;0.47;;;;;;;10.60;72.32;98084.44;337708;29;1701;-89
2023/04/01 00:16:55;;;;;;;2.85;0.50;;;;;;;10.59;72.54;98077.59;340852;29;1616;-90
2023/04/01 00:17:07;;;;;;;3.40;0.40;;;;;;;10.70;72.59;98069.97;339253;29;1597;-89
2023/04/01 00:17:20;;;;;;;2.50;0.40;;;;;;;10.61;72.07;98080.94;339570;28;912;-90
2023/04/01 00:17:32;;;;;;;2.22;0.40;;;;;;;10.66;72.22;98083.25;340649;28;986;-89
2023/04/01 00:17:44;;;;;;;2.50;0.50;;;;;;;10.67;72.51;98072.78;341289;29;889;-89
2023/04/01 00:17:57;;;;;;;2.97;0.50;;;;;;;10.62;72.44;98077.41;341643;28;1180;-90
2023/04/01 00:18:09;;;;;;;3.45;0.52;;;;;;;10.63;72.39;98083.44;342079;28;1882;-90
2023/04/01 00:18:22;;;;;;;2.10;0.43;;;;;;;10.68;72.07;98066.63;340615;28;873;-89
2023/04/01 00:18:34;;;;;;;1.83;0.40;;;;;;;10.68;72.23;98077.03;339344;28;1127;-90
2023/04/01 00:18:47;;;;;;;2.40;0.40;;;;;;;10.58;72.90;98076.75;340919;29;1172;-90
2023/04/01 00:18:59;;;;;;;3.10;0.80;;;;;;;10.50;73.23;98057.31;340688;28;877;-89
2023/04/01 00:19:12;;;;;;;3.30;0.80;;;;;;;10.55;72.97;98083.88;339950;28;1955;-90
2023/04/01 00:19:24;;;;;;;1.65;0.50;;;;;;;10.58;72.63;98076.75;339394;28;1907;-88
2023/04/01 00:19:36;;;;;;;1.38;0.50;;;;;;;10.59;72.82;98086.22;340621;29;739;-90
2023/04/01 00:19:49;;;;;;;1.80;0.60;;;;;;;10.60;72.99;98074.03;340638;29;839;-90
2023/04/01 00:20:02;;;;;;;1.90;0.60;;;;;;;10.63;72.87;98057.47;341892;28;974;-89
2023/04/01 00:20:14;;;;;;;1.63;0.45;;;;;;;10.54;73.09;98058.81;340766;28;1150;-89
2023/04/01 00:20:27;;;;;;;2.20;0.40;;;;;;;10.49;72.64;98097.22;342986;28;1074;-89
2023/04/01 00:20:47;;;;;;;1.60;0.30;;;;;;;10.51;73.05;98075.44;342409;28;1190;-89
2023/04/01 00:20:59;;;;;;;2.58;0.43;;;;;;;10.53;72.79;98034.59;337915;29;1147;-90
2023/04/01 00:21:11;;;;;;;2.55;0.40;;;;;;;10.56;72.62;98056.97;338200;29;954;-90
2023/04/01 00:21:24;;;;;;;1.65;0.40;;;;;;;10.51;72.74;98038.22;339476;28;1074;-89
2023/04/01 00:21:36;;;;;;;1.40;0.40;;;;;;;10.59;72.92;98072.38;339267;29;974;-89
2023/04/01 00:21:48;;;;;;;1.80;0.47;;;;;;;10.50;73.44;98070.31;338025;29;879;-90
2023/04/01 00:22:01;;;;;;;1.98;0.45;;;;;;;10.56;73.14;98072.56;338137;29;883;-90
2023/04/01 00:22:13;;;;;;;2.80;0.50;;;;;;;10.49;73.21;98071.25;340802;28;1702;-90
2023/04/01 00:22:26;;;;;;;2.40;0.52;;;;;;;10.45;73.54;98059.38;340751;28;1068;-89
2023/04/01 00:22:39;;;;;;;2.30;0.50;;;;;;;10.47;73.42;98057.50;339674;29;868;-91
2023/04/01 00:22:51;;;;;;;2.30;0.50;;;;;;;10.54;72.98;98058.81;339365;29;1628;-90
2023/04/01 00:23:04;;;;;;;1.85;0.40;;;;;;;10.65;72.62;98046.03;340248;29;833;-89
2023/04/01 00:23:17;;;;;;;1.65;0.40;;;;;;;10.68;72.76;98071.84;338351;28;972;-90
2023/04/01 00:23:30;;;;;;;3.47;0.52;;;;;;;10.65;72.50;98066.84;338197;29;779;-90
2023/04/01 00:23:43;;;;;;;2.95;0.50;;;;;;;10.73;72.50;98069.81;339653;29;1631;-89
2023/04/01 00:23:55;;;;;;;1.63;0.32;;;;;;;10.71;72.14;98061.28;338184;29;1089;-89
2023/04/01 00:24:07;;;;;;;1.40;0.40;;;;;;;10.73;72.11;98030.84;339280;29;897;-89
2023/04/01 00:24:19;;;;;;;1.27;0.40;;;;;;;10.75;72.36;98067.97;340737;29;836;-89
2023/04/01 00:24:32;;;;;;;0.47;0.30;;;;;;;10.69;72.69;98080.50;338012;29;998;-89
2023/04/01 00:24:44;;;;;;;1.80;0.43;;;;;;;10.59;72.62;98072.38;339956;29;805;-89
2023/04/01 00:24:59;;;;;;;2.35;0.55;;;;;;;10.61;72.97;98075.75;338525;29;861;-89
2023/04/01 00:25:12;;;;;;;3.13;0.60;;;;;;;10.59;72.63;98083.59;339609;29;1056;-89
2023/04/01 00:25:24;;;;;;;3.13;0.60;;;;;;;10.54;72.99;98084.78;339939;28;867;-89
2023/04/01 00:25:36;;;;;;;2.58;0.70;;;;;;;10.54;73.01;98079.59;340012;29;1297;-88
2023/04/01 00:25:49;;;;;;;1.83;0.60;;;;;;;10.48;72.95;98061.78;341561;28;916;-89
2023/04/01 00:26:05;;;;;;;2.25;0.57;;;;;;;10.48;73.23;98095.53;339288;28;2004;-89
2023/04/01 00:26:20;;;;;;;1.48;0.60;;;;;;;10.49;73.50;98081.66;340319;28;1035;-89
2023/04/01 00:26:32;;;;;;;2.90;0.60;;;;;;;10.57;72.90;98074.25;338309;29;928;-89
2023/04/01 00:26:44;;;;;;;4.13;0.90;;;;;;;10.59;72.86;98073.22;339915;29;1061;-89
2023/04/01 00:26:56;;;;;;;4.35;0.88;;;;;;;10.56;73.35;98082.94;341041;28;990;-90
2023/04/01 00:27:10;;;;;;;2.53;0.57;;;;;;;10.62;72.97;98087.78;342097;28;879;-89
2023/04/01 00:27:22;;;;;;;3.15;0.65;;;;;;;10.62;73.06;98072.19;341033;29;801;-89
2023/04/01 00:27:34;;;;;;;3.20;0.80;;;;;;;10.59;72.62;98077.59;340788;29;827;-88
2023/04/01 00:27:46;;;;;;;3.05;0.73;;;;;;;10.61;73.47;98078.34;340718;28;971;-91
2023/04/01 00:27:59;;;;;;;2.42;0.70;;;;;;;10.57;73.23;98088.06;339642;29;835;-90
2023/04/01 00:28:11;;;;;;;3.63;0.60;;;;;;;10.55;73.54;98079.53;339770;28;1016;-89
2023/04/01 00:28:23;;;;;;;3.13;0.60;;;;;;;10.55;73.25;98070.91;340372;28;1104;-89
2023/04/01 00:28:35;;;;;;;1.98;0.50;;;;;;;10.57;73.40;98071.66;339783;29;911;-89
2023/04/01 00:28:49;;;;;;;2.88;0.50;;;;;;;10.50;73.67;98071.16;340554;28;1066;-89
2023/04/01 00:29:04;;;;;;;2.58;0.60;;;;;;;10.49;73.65;98071.25;339431;29;787;-90
2023/04/01 00:29:16;;;;;;;2.97;0.60;;;;;;;10.51;73.60;98079.78;339123;29;954;-88
2023/04/01 00:29:30;;;;;;;2.88;0.50;;;;;;;10.52;73.54;98076.25;339398;29;933;-89
2023/04/01 00:29:43;;;;;;;3.00;0.40;;;;;;;10.52;73.89;98091.84;339476;29;878;-88
2023/04/01 00:29:56;;;;;;;2.90;0.70;;;;;;;10.46;73.77;98092.19;338097;29;1001;-89
2023/04/01 00:30:09;;;;;;;2.22;0.68;;;;;;;10.51;73.81;98116.16;340858;29;747;-89
2023/04/01 00:30:25;;;;;;;1.98;0.60;;;;;;;10.60;73.45;98079.25;339381;29;1076;-89
2023/04/01 00:30:37;;;;;;;2.63;0.60;;;;;;;10.61;73.29;98091.31;339548;29;759;-89
2023/04/01 00:30:49;;;;;;;2.38;0.50;;;;;;;10.56;73.27;98077.75;339733;28;912;-88
2023/04/01 00:31:06;;;;;;;3.03;0.40;;;;;;;10.57;73.68;98063.84;340172;28;1088;-89
2023/04/01 00:31:21;;;;;;;2.75;0.60;;;;;;;10.49;73.98;98076.44;339460;29;944;-89
2023/04/01 00:31:34;;;;;;;1.42;0.65;;;;;;;10.47;74.04;98068.72;339124;29;1954;-89
2023/04/01 00:31:46;;;;;;;1.25;0.57;;;;;;;10.37;74.48;98073.63;339051;28;879;-88
2023/04/01 00:31:59;;;;;;;2.05;0.35;;;;;;;10.36;74.70;98082.34;339328;28;984;-89
2023/04/01 00:32:14;;;;;;;3.30;0.47;;;;;;;10.41;74.52;98086.44;340790;28;999;-89
2023/04/01 00:32:26;;;;;;;3.38;0.50;;;;;;;10.51;74.27;98079.78;339469;29;828;-89
2023/04/01 00:32:39;;;;;;;2.90;0.50;;;;;;;10.44;73.96;98066.28;340707;28;889;-89
2023/04/01 00:32:52;;;;;;;1.80;0.50;;;;;;;10.49;74.50;98081.66;340869;29;803;-89
2023/04/01 00:33:05;;;;;;;2.45;0.60;;;;;;;10.51;74.16;98079.78;340653;29;957;-90
2023/04/01 00:33:17;;;;;;;2.13;0.60;;;;;;;10.47;74.35;98076.53;340778;29;853;-89
2023/04/01 00:33:30;;;;;;;3.05;0.68;;;;;;;10.45;74.21;98088.75;341296;28;1029;-89
2023/04/01 00:33:43;;;;;;;3.55;0.60;;;;;;;10.47;74.26;98078.28;341497;28;1092;-89
2023/04/01 00:33:56;;;;;;;3.17;0.60;;;;;;;10.44;74.26;98078.47;339257;29;977;-89
2023/04/01 00:34:08;;;;;;;2.22;0.60;;;;;;;10.43;74.63;98082.00;339564;29;1027;-89
2023/04/01 00:34:20;;;;;;;2.00;0.70;;;;;;;10.39;74.56;98081.31;340863;29;902;-88
2023/04/01 00:34:33;;;;;;;1.88;0.68;;;;;;;10.43;74.59;98080.22;340611;28;875;-89
2023/04/01 00:34:45;;;;;;;3.25;0.60;;;;;;;10.42;74.90;98085.50;339572;29;1292;-90
2023/04/01 00:34:59;;;;;;;2.65;0.50;;;;;;;10.39;75.11;98066.56;338164;29;1365;-90
2023/04/01 00:35:12;;;;;;;2.42;0.60;;;;;;;10.38;75.11;98079.63;337993;29;1589;-90
2023/04/01 00:35:24;;;;;;;2.65;0.65;;;;;;;10.35;75.31;98085.84;338042;29;985;-89
2023/04/01 00:35:37;;;;;;;4.07;0.85;;;;;;;10.35;75.38;98088.44;336865;29;1346;-90
2023/04/01 00:35:49;;;;;;;4.53;0.88;;;;;;;10.26;75.41;98081.16;338022;29;909;-89
2023/04/01 00:36:14;;;;;;;4.93;0.93;;;;;;;10.34;75.19;98085.94;340170;29;868;-89
2023/04/01 00:36:26;;;;;;;4.38;0.68;;;;;;;10.31;75.62;98088.72;340800;28;1055;-89
2023/04/01 00:36:38;;;;;;;3.95;0.70;;;;;;;10.26;75.48;98091.56;340738;29;1898;-90
2023/04/01 00:36:52;;;;;;;2.80;0.70;;;;;;;10.29;75.47;98091.38;339546;28;992;-89
2023/04/01 00:37:04;;;;;;;2.22;0.52;;;;;;;10.27;75.85;98095.81;339202;28;1123;-89
2023/04/01 00:37:16;;;;;;;2.97;0.55;;;;;;;10.26;75.46;98086.34;339483;28;896;-89
2023/04/01 00:37:28;;;;;;;3.10;0.50;;;;;;;10.36;75.54;98081.47;338299;29;740;-89
2023/04/01 00:37:41;;;;;;;3.00;0.55;;;;;;;10.38;75.46;98083.09;339527;29;936;-91
2023/04/01 00:37:53;;;;;;;1.83;0.60;;;;;;;10.39;75.05;98073.53;339468;29;760;-90
2023/04/01 00:38:06;;;;;;;1.67;0.50;;;;;;;10.39;74.56;98112.50;340767;28;972;-89
2023/04/01 00:38:18;;;;;;;2.13;0.50;;;;;;;10.46;74.69;98089.59;342081;28;859;-89
2023/04/01 00:38:30;;;;;;;2.63;0.50;;;;;;;10.46;74.51;98081.81;342230;29;822;-89
2023/04/01 00:38:43;;;;;;;2.25;0.50;;;;;;;10.44;74.63;98088.84;342633;28;976;-89
2023/04/01 00:38:58;;;;;;;2.60;0.57;;;;;;;10.44;74.48;98078.47;341320;29;1142;-90
2023/04/01 00:39:10;;;;;;;3.05;0.63;;;;;;;10.46;74.42;98071.41;339488;29;964;-88
2023/04/01 00:39:22;;;;;;;2.70;0.70;;;;;;;10.49;74.27;98076.44;340683;28;949;-89
2023/04/01 00:39:35;;;;;;;3.03;0.60;;;;;;;10.47;74.45;98073.09;340956;28;972;-88
2023/04/01 00:39:48;;;;;;;3.08;0.65;;;;;;;10.44;74.35;98079.28;339827;29;945;-90
2023/04/01 00:40:00;;;;;;;3.38;0.57;;;;;;;10.44;74.42;98068.91;340147;29;847;-90
2023/04/01 00:40:29;;;;;;;3.38;0.55;;;;;;;10.51;74.23;98082.38;341155;28;988;-89
2023/04/01 00:40:43;;;;;;;1.88;0.50;;;;;;;10.53;74.23;98073.56;341068;29;941;-89
2023/04/01 00:40:58;;;;;;;2.50;0.63;;;;;;;10.54;73.44;98079.59;340814;29;820;-89
2023/04/01 00:41:14;;;;;;;2.10;0.60;;;;;;;10.47;73.91;98078.28;338182;29;1914;-89
2023/04/01 00:41:26;;;;;;;1.75;0.47;;;;;;;10.56;73.89;98082.94;339341;29;1027;-89
2023/04/01 00:41:38;;;;;;;1.70;0.52;;;;;;;10.52;73.81;98081.44;339746;29;975;-89
2023/04/01 00:41:51;;;;;;;1.63;0.57;;;;;;;10.51;73.71;98072.00;339691;29;732;-89
2023/04/01 00:42:04;;;;;;;1.73;0.50;;;;;;;10.54;73.74;98071.81;340846;28;1042;-89
2023/04/01 00:42:16;;;;;;;2.60;0.60;;;;;;;10.45;74.05;98087.94;341046;28;1066;-89
2023/04/01 00:42:28;;;;;;;3.33;0.60;;;;;;;10.51;74.07;98078.03;341090;28;984;-90
2023/04/01 00:42:41;;;;;;;2.28;0.52;;;;;;;10.46;74.67;98098.22;340891;28;1035;-89
2023/04/01 00:42:54;;;;;;;2.33;0.55;;;;;;;10.43;74.52;98077.63;341320;29;1163;-91
2023/04/01 00:43:12;;;;;;;2.60;0.60;;;;;;;10.44;74.72;98100.06;338787;28;1100;-89
2023/04/01 00:43:24;;;;;;;2.65;0.80;;;;;;;10.47;74.41;98088.69;337775;29;1196;-90
2023/04/01 00:43:36;;;;;;;3.28;0.70;;;;;;;10.52;73.88;98081.44;338336;28;976;-89
2023/04/01 00:43:50;;;;;;;5.40;0.80;;;;;;;10.45;74.24;98059.38;338562;28;898;-89
2023/04/01 00:44:34;;;;;;;5.25;0.80;;;;;;;10.48;74.52;98082.56;339017;29;1153;-89
2023/04/01 00:44:54;;;;;;;4.32;1.30;;;;;;;10.50;74.49;98073.78;340024;29;1024;-88
2023/04/01 00:45:35;;;;;;;2.42;0.68;;;;;;;10.56;74.57;98082.94;338193;29;1239;-89
2023/04/01 00:45:49;;;;;;;1.77;0.75;;;;;;;10.60;73.88;98066.25;339920;29;982;-90
2023/04/01 00:46:01;;;;;;;2.03;1.00;;;;;;;10.57;74.38;98089.84;339791;29;1093;-89
2023/04/01 00:46:14;;;;;;;2.25;0.90;;;;;;;10.54;74.12;98090.00;340037;28;1319;-89
2023/04/01 00:46:26;;;;;;;2.03;0.60;;;;;;;10.61;73.93;98060.16;339767;29;1225;-89
2023/04/01 00:46:38;;;;;;;1.52;0.60;;;;;;;10.57;73.91;98085.47;340136;28;910;-89
2023/04/01 00:46:52;;;;;;;1.83;0.60;;;;;;;10.51;74.14;98074.59;341822;29;743;-91
2023/04/01 00:47:04;;;;;;;2.20;0.70;;;;;;;10.51;73.98;98093.59;341581;28;1021;-92
2023/04/01 00:47:18;;;;;;;3.90;0.80;;;;;;;10.59;74.01;98031.66;341699;28;1191;-93
2023/04/01 00:47:30;;;;;;;3.50;0.52;;;;;;;10.62;73.65;98064.41;342361;28;1080;-89
2023/04/01 00:47:43;;;;;;;1.77;0.57;;;;;;;10.55;74.01;98078.69;341887;29;961;-89
2023/04/01 00:47:57;;;;;;;2.65;0.60;;;;;;;10.53;74.04;98072.75;340727;29;854;-88
2023/04/01 00:48:13;;;;;;;3.00;0.60;;;;;;;10.54;74.22;98074.41;340784;29;770;-90
2023/04/01 00:48:31;;;;;;;2.70;0.63;;;;;;;10.58;74.36;98081.09;340617;28;1648;-90
2023/04/01 00:48:49;;;;;;;3.97;0.80;;;;;;;10.48;74.30;98075.59;339420;29;867;-88
2023/04/01 00:49:01;;;;;;;2.83;0.60;;;;;;;10.45;74.16;98083.56;340903;28;942;-89
2023/04/01 00:49:17;;;;;;;1.42;0.50;;;;;;;10.47;74.38;98099.06;338837;29;874;-92
2023/04/01 00:49:35;;;;;;;1.17;0.50;;;;;;;10.48;74.66;98080.78;338174;29;1139;-89
2023/04/01 00:49:51;;;;;;;2.60;0.60;;;;;;;10.38;74.32;98083.09;339844;29;958;-89
2023/04/01 00:50:03;;;;;;;3.30;0.52;;;;;;;10.49;74.74;98055.66;340615;28;966;-89
2023/04/01 00:50:15;;;;;;;2.28;0.50;;;;;;;10.52;74.59;98082.31;340778;29;731;-89
2023/04/01 00:50:29;;;;;;;1.52;0.50;;;;;;;10.50;74.52;98078.09;339999;29;1170;-89
2023/04/01 00:50:48;;;;;;;2.30;0.47;;;;;;;10.58;73.99;98086.28;340575;28;963;-90
2023/04/01 00:51:09;;;;;;;2.35;0.50;;;;;;;10.49;74.04;98092.03;339416;29;950;-90
2023/04/01 00:51:25;;;;;;;2.15;0.55;;;;;;;10.51;74.26;98085.00;341355;28;1803;-88
2023/04/01 00:51:38;;;;;;;1.75;0.30;;;;;;;10.49;73.99;98103.25;339810;28;1007;-89
2023/04/01 00:51:55;;;;;;;2.38;0.40;;;;;;;10.55;73.94;98096.88;341394;28;1096;-88
2023/04/01 00:52:10;;;;;;;3.30;0.60;;;;;;;10.58;74.03;98078.50;339494;29;979;-89
2023/04/01 00:52:25;;;;;;;2.47;0.60;;;;;;;10.58;73.89;98075.91;339241;28;1008;-89
2023/04/01 00:52:37;;;;;;;2.80;0.50;;;;;;;10.56;73.87;98051.78;339244;28;1059;-89
2023/04/01 00:52:50;;;;;;;2.88;0.60;;;;;;;10.58;73.73;98066.38;339331;29;1027;-90
2023/04/01 00:53:02;;;;;;;2.10;0.60;;;;;;;10.62;73.94;98087.78;339442;29;873;-89
2023/04/01 00:53:17;;;;;;;2.88;0.63;;;;;;;10.62;74.10;98077.41;339444;29;908;-90
2023/04/01 00:53:31;;;;;;;2.83;0.60;;;;;;;10.57;74.08;98080.25;339115;28;971;-90
2023/04/01 00:53:47;;;;;;;1.83;0.47;;;;;;;10.54;73.83;98064.00;338099;29;980;-89
2023/04/01 00:54:01;;;;;;;1.83;0.47;;;;;;;10.51;74.05;98079.78;336911;29;887;-90
2023/04/01 00:54:16;;;;;;;1.55;0.50;;;;;;;10.47;74.67;98073.94;337285;29;847;-88
2023/04/01 00:54:30;;;;;;;2.40;0.50;;;;;;;10.45;74.33;98082.75;337642;29;906;-89
2023/04/01 00:54:47;;;;;;;3.33;0.70;;;;;;;10.44;74.74;98075.84;339204;29;1672;-89
2023/04/01 00:55:07;;;;;;;3.47;0.65;;;;;;;10.43;74.60;98071.59;339704;28;1063;-89
2023/04/01 00:55:23;;;;;;;2.95;0.70;;;;;;;10.43;74.23;98102.78;339322;29;851;-88
2023/04/01 00:55:39;;;;;;;3.13;0.60;;;;;;;10.42;74.70;98075.13;340715;28;1336;-90
2023/04/01 00:56:00;;;;;;;2.95;0.43;;;;;;;10.34;74.92;98088.53;340850;28;1076;-89
2023/04/01 00:56:17;;;;;;;2.63;0.50;;;;;;;10.42;74.88;98075.13;340098;28;1123;-92
2023/04/01 00:56:33;;;;;;;2.15;0.52;;;;;;;10.36;74.85;98077.16;341600;28;1144;-90
2023/04/01 00:56:51;;;;;;;3.33;0.68;;;;;;;10.39;74.59;98073.53;341127;28;1624;-90
2023/04/01 00:57:11;;;;;;;3.80;0.60;;;;;;;10.37;74.99;98073.63;340314;29;864;-88
2023/04/01 00:57:30;;;;;;;2.25;0.40;;;;;;;10.42;75.00;98085.50;340664;28;979;-89
2023/04/01 00:57:45;;;;;;;2.00;0.40;;;;;;;10.40;74.75;98088.19;339308;28;1056;-89
2023/04/01 00:58:00;;;;;;;2.40;0.50;;;;;;;10.36;74.87;98074.56;339227;28;924;-89
2023/04/01 00:58:16;;;;;;;4.40;1.00;;;;;;;10.44;74.95;98068.06;340678;28;1078;-89
2023/04/01 00:58:32;;;;;;;3.85;0.93;;;;;;;10.48;74.94;98069.56;338098;29;877;-89
2023/04/01 00:58:50;;;;;;;2.45;0.45;;;;;;;10.54;74.29;98069.22;337765;29;1029;-90
2023/04/01 00:59:11;;;;;;;2.35;0.40;;;;;;;10.48;74.40;98079.94;340514;28;1062;-88
2023/04/01 00:59:38;;;;;;;2.35;0.50;;;;;;;10.49;74.31;98068.66;341886;28;1082;-89
2023/04/01 00:59:54;;;;;;;4.07;0.90;;;;;;;10.48;74.89;98059.16;342820;29;998;-88
2023/04/01 01:00:11;;;;;;;4.72;0.90;;;;;;;10.51;74.59;98070.22;341815;28;942;-88
2023/04/01 01:00:23;;;;;;;3.60;0.80;;;;;;;10.58;74.29;98060.31;341707;29;1149;-89
2023/04/01 01:00:36;;;;;;;2.65;0.70;;;;;;;10.53;73.96;98063.19;341913;28;1032;-89
2023/04/01 01:00:50;;;;;;;2.78;0.70;;;;;;;10.54;74.39;98064.88;342149;28;994;-90
2023/04/01 01:01:03;;;;;;;2.17;0.70;;;;;;;10.48;74.60;98069.56;340945;29;819;-88
2023/04/01 01:01:15;;;;;;;2.03;0.50;;;;;;;10.47;74.16;98065.31;341429;29;908;-89
2023/04/01 01:01:29;;;;;;;2.63;0.55;;;;;;;10.49;74.23;98058.25;341326;28;995;-89
2023/04/01 01:01:42;;;;;;;2.97;0.60;;;;;;;10.46;74.73;98063.63;342069;28;1218;-89
2023/04/01 01:01:54;;;;;;;4.07;0.70;;;;;;;10.48;74.43;98074.75;342013;28;867;-88
2023/04/01 01:02:09;;;;;;;3.53;0.60;;;;;;;10.48;74.61;98072.16;341793;29;931;-89
2023/04/01 01:02:23;;;;;;;3.97;0.60;;;;;;;10.51;74.42;98069.41;343035;28;939;-89
2023/04/01 01:02:35;;;;;;;3.20;0.68;;;;;;;10.43;74.75;98069.84;340596;28;1915;-89
2023/04/01 01:02:50;;;;;;;2.03;0.60;;;;;;;10.52;74.83;98076.25;340611;28;1181;-90
2023/04/01 01:03:02;;;;;;;2.28;0.57;;;;;;;10.55;74.57;98068.28;339518;29;981;-90
2023/04/01 01:03:15;;;;;;;3.00;0.55;;;;;;;10.53;74.37;98080.53;339293;29;1032;-89
2023/04/01 01:03:27;;;;;;;1.98;0.47;;;;;;;10.54;73.91;98096.03;339491;29;774;-90
2023/04/01 01:03:40;;;;;;;1.67;0.40;;;;;;;10.61;73.94;98083.53;339483;29;747;-89
2023/04/01 01:03:52;;;;;;;1.73;0.60;;;;;;;10.54;74.21;98075.25;340609;28;971;-89
2023/04/01 01:04:04;;;;;;;2.30;0.63;;;;;;;10.64;74.03;98080.75;341765;28;1164;-89
2023/04/01 01:04:26;;;;;;;1.65;0.50;;;;;;;10.53;73.84;98064.94;341974;29;762;-90
2023/04/01 01:04:38;;;;;;;2.33;0.60;;;;;;;10.52;74.42;98082.31;340653;29;995;-89
2023/04/01 01:04:50;;;;;;;2.63;0.43;;;;;;;10.54;74.14;98058.81;341004;28;980;-89
2023/04/01 01:05:02;;;;;;;2.25;0.40;;;;;;;10.54;74.61;98064.88;342785;29;1136;-89
2023/04/01 01:05:16;;;;;;;2.08;0.40;;;;;;;10.55;74.20;98070.91;340628;28;920;-90
2023/04/01 01:05:50;;;;;;;2.20;0.43;;;;;;;10.50;74.37;98080.69;341722;28;990;-91
2023/04/01 01:06:23;;;;;;;4.05;0.70;;;;;;;10.65;73.79;98051.25;339326;29;950;-90
2023/04/01 01:06:56;;;;;;;2.63;0.60;;;;;;;10.50;74.13;98093.69;340154;29;2173;-90
2023/04/01 01:08:07;;;;;;;2.28;0.70;;;;;;;10.50;74.39;98070.31;341854;28;1030;-90
2023/04/01 01:08:43;;;;;;;3.03;0.63;;;;;;;10.57;73.85;98063.84;337795;29;1279;-90
2023/04/01 01:09:16;;;;;;;3.72;0.60;;;;;;;10.48;74.33;98082.56;335420;29;1059;-89
2023/04/01 01:09:57;;;;;;;2.15;0.60;;;;;;;10.48;73.77;98079.94;340556;29;967;-89
2023/04/01 01:10:15;;;;;;;3.10;0.70;;;;;;;10.59;73.35;98077.59;341446;29;942;-89